createdAt,value
2016-09-26T00:00:10.996Z,1007.85
2016-09-26T00:01:11.009Z,1007.83
2016-09-26T00:02:11.040Z,1007.83
2016-09-26T00:03:11.054Z,1007.83
2016-09-26T00:04:11.074Z,1007.85
2016-09-26T00:05:11.097Z,1007.84
2016-09-26T00:06:11.119Z,1007.82
2016-09-26T00:07:11.143Z,1007.85
2016-09-26T00:08:11.163Z,1007.84
2016-09-26T00:09:11.185Z,1007.84
2016-09-26T00:10:11.209Z,1007.81
2016-09-26T00:11:11.229Z,1007.85
2016-09-26T00:12:11.251Z,1007.85
2016-09-26T00:13:11.274Z,1007.82
2016-09-26T00:14:11.295Z,1007.84
2016-09-26T00:15:11.323Z,1007.86
2016-09-26T00:16:11.339Z,1007.87
2016-09-26T00:17:11.361Z,1007.87
2016-09-26T00:18:11.383Z,1007.87
2016-09-26T00:19:11.404Z,1007.86
2016-09-26T00:20:11.429Z,1007.86
2016-09-26T00:21:11.449Z,1007.85
2016-09-26T00:22:11.470Z,1007.87
2016-09-26T00:23:11.493Z,1007.88
2016-09-26T00:24:11.516Z,1007.88
2016-09-26T00:25:11.537Z,1007.9
2016-09-26T00:26:11.559Z,1007.91
2016-09-26T00:27:11.579Z,1007.91
2016-09-26T00:28:11.601Z,1007.88
2016-09-26T00:29:11.623Z,1007.88
2016-09-26T00:30:11.762Z,1007.83
2016-09-26T00:31:11.769Z,1007.81
2016-09-26T00:32:11.778Z,1007.75
2016-09-26T00:33:11.803Z,1007.79
2016-09-26T00:34:11.846Z,1007.8
2016-09-26T00:35:11.855Z,1007.77
2016-09-26T00:36:11.865Z,1007.74
2016-09-26T00:37:11.897Z,1007.79
2016-09-26T00:38:12.011Z,1007.74
2016-09-26T00:39:11.918Z,1007.82
2016-09-26T00:40:11.915Z,1007.76
2016-09-26T00:41:11.924Z,1007.82
2016-09-26T00:42:11.933Z,1007.81
2016-09-26T00:43:12.045Z,1007.76
2016-09-26T00:44:11.948Z,1007.77
2016-09-26T00:45:12.062Z,1007.73
2016-09-26T00:46:11.999Z,1007.74
2016-09-26T00:47:12.013Z,1007.71
2016-09-26T00:48:12.085Z,1007.71
2016-09-26T00:49:12.057Z,1007.7
2016-09-26T00:50:12.078Z,1007.67
2016-09-26T00:51:12.100Z,1007.69
2016-09-26T00:52:12.122Z,1007.7
2016-09-26T00:53:12.143Z,1007.69
2016-09-26T00:54:12.165Z,1007.67
2016-09-26T00:55:12.186Z,1007.73
2016-09-26T00:56:12.208Z,1007.72
2016-09-26T00:57:12.230Z,1007.71
2016-09-26T00:58:12.251Z,1007.73
2016-09-26T00:59:12.272Z,1007.74
2016-09-26T01:00:12.294Z,1007.7
2016-09-26T01:01:12.316Z,1007.68
2016-09-26T01:02:12.338Z,1007.71
2016-09-26T01:03:12.358Z,1007.71
2016-09-26T01:04:12.383Z,1007.72
2016-09-26T01:05:12.403Z,1007.7
2016-09-26T01:06:12.423Z,1007.75
2016-09-26T01:07:12.445Z,1007.77
2016-09-26T01:08:12.467Z,1007.79
2016-09-26T01:09:12.489Z,1007.81
2016-09-26T01:10:12.510Z,1007.85
2016-09-26T01:11:12.531Z,1007.85
2016-09-26T01:12:12.556Z,1007.84
2016-09-26T01:13:12.580Z,1007.81
2016-09-26T01:14:12.598Z,1007.8
2016-09-26T01:15:12.618Z,1007.79
2016-09-26T01:16:12.639Z,1007.77
2016-09-26T01:17:12.660Z,1007.75
2016-09-26T01:18:12.682Z,1007.8
2016-09-26T01:19:12.705Z,1007.81
2016-09-26T01:20:12.725Z,1007.8
2016-09-26T01:21:12.747Z,1007.83
2016-09-26T01:22:12.768Z,1007.81
2016-09-26T01:23:12.789Z,1007.84
2016-09-26T01:24:12.812Z,1007.8
2016-09-26T01:25:12.832Z,1007.77
2016-09-26T01:26:12.854Z,1007.74
2016-09-26T01:27:12.875Z,1007.73
2016-09-26T01:28:12.896Z,1007.73
2016-09-26T01:29:12.918Z,1007.75
2016-09-26T01:30:12.940Z,1007.71
2016-09-26T01:31:12.961Z,1007.71
2016-09-26T01:32:12.984Z,1007.7
2016-09-26T01:33:13.003Z,1007.7
2016-09-26T01:34:13.025Z,1007.7
2016-09-26T01:35:13.050Z,1007.71
2016-09-26T01:36:13.067Z,1007.7
2016-09-26T01:37:13.089Z,1007.7
2016-09-26T01:38:13.312Z,1007.7
2016-09-26T01:39:13.131Z,1007.74
2016-09-26T01:40:13.154Z,1007.73
2016-09-26T01:41:13.174Z,1007.72
2016-09-26T01:42:13.195Z,1007.74
2016-09-26T01:43:13.219Z,1007.76
2016-09-26T01:44:13.238Z,1007.74
2016-09-26T01:45:13.259Z,1007.71
2016-09-26T01:46:13.281Z,1007.7
2016-09-26T01:47:13.302Z,1007.73
2016-09-26T01:48:13.325Z,1007.71
2016-09-26T01:49:13.346Z,1007.76
2016-09-26T01:50:13.367Z,1007.78
2016-09-26T01:51:13.388Z,1007.75
2016-09-26T01:52:13.410Z,1007.75
2016-09-26T01:53:13.431Z,1007.76
2016-09-26T01:54:13.451Z,1007.74
2016-09-26T01:55:13.472Z,1007.71
2016-09-26T01:56:13.494Z,1007.7
2016-09-26T01:57:13.517Z,1007.71
2016-09-26T01:58:13.536Z,1007.72
2016-09-26T01:59:13.559Z,1007.75
2016-09-26T02:00:13.580Z,1007.72
2016-09-26T02:01:13.601Z,1007.72
2016-09-26T02:02:13.621Z,1007.74
2016-09-26T02:03:13.644Z,1007.73
2016-09-26T02:04:13.665Z,1007.72
2016-09-26T02:05:13.688Z,1007.74
2016-09-26T02:06:13.707Z,1007.76
2016-09-26T02:07:13.728Z,1007.73
2016-09-26T02:08:13.749Z,1007.75
2016-09-26T02:09:13.771Z,1007.77
2016-09-26T02:10:13.792Z,1007.72
2016-09-26T02:11:13.813Z,1007.66
2016-09-26T02:12:13.837Z,1007.67
2016-09-26T02:13:13.855Z,1007.66
2016-09-26T02:14:13.875Z,1007.64
2016-09-26T02:15:13.897Z,1007.61
2016-09-26T02:16:13.917Z,1007.59
2016-09-26T02:17:13.939Z,1007.6
2016-09-26T02:18:13.960Z,1007.6
2016-09-26T02:19:13.981Z,1007.57
2016-09-26T02:20:14.003Z,1007.58
2016-09-26T02:21:14.023Z,1007.59
2016-09-26T02:22:14.045Z,1007.59
2016-09-26T02:23:14.064Z,1007.6
2016-09-26T02:24:14.087Z,1007.63
2016-09-26T02:25:14.109Z,1007.63
2016-09-26T02:26:14.129Z,1007.64
2016-09-26T02:27:14.149Z,1007.63
2016-09-26T02:28:14.176Z,1007.61
2016-09-26T02:29:14.195Z,1007.58
2016-09-26T02:30:14.213Z,1007.56
2016-09-26T02:31:14.233Z,1007.55
2016-09-26T02:32:14.255Z,1007.52
2016-09-26T02:33:14.277Z,1007.53
2016-09-26T02:34:14.296Z,1007.54
2016-09-26T02:35:14.319Z,1007.54
2016-09-26T02:36:14.341Z,1007.54
2016-09-26T02:37:14.362Z,1007.53
2016-09-26T02:38:14.380Z,1007.52
2016-09-26T02:39:14.401Z,1007.59
2016-09-26T02:40:14.423Z,1007.54
2016-09-26T02:41:14.444Z,1007.54
2016-09-26T02:42:14.464Z,1007.55
2016-09-26T02:43:14.487Z,1007.52
2016-09-26T02:44:14.507Z,1007.64
2016-09-26T02:45:14.529Z,1007.6
2016-09-26T02:46:14.549Z,1007.6
2016-09-26T02:47:14.577Z,1007.63
2016-09-26T02:48:14.592Z,1007.68
2016-09-26T02:49:14.611Z,1007.71
2016-09-26T02:50:14.634Z,1007.72
2016-09-26T02:51:14.654Z,1007.78
2016-09-26T02:52:14.673Z,1007.86
2016-09-26T02:53:14.695Z,1007.86
2016-09-26T02:54:14.716Z,1007.8
2016-09-26T02:55:14.737Z,1007.8
2016-09-26T02:56:14.761Z,1007.78
2016-09-26T02:57:14.779Z,1007.79
2016-09-26T02:58:14.800Z,1007.8
2016-09-26T02:59:14.821Z,1007.8
2016-09-26T03:00:14.841Z,1007.83
2016-09-26T03:01:14.862Z,1007.85
2016-09-26T03:02:14.883Z,1007.88
2016-09-26T03:03:14.903Z,1007.94
2016-09-26T03:04:14.925Z,1007.92
2016-09-26T03:05:14.946Z,1007.93
2016-09-26T03:06:14.968Z,1007.88
2016-09-26T03:07:14.987Z,1007.82
2016-09-26T03:08:15.008Z,1007.85
2016-09-26T03:09:15.029Z,1007.92
2016-09-26T03:10:15.050Z,1008.01
2016-09-26T03:11:15.071Z,1007.98
2016-09-26T03:12:15.091Z,1007.98
2016-09-26T03:13:15.119Z,1007.98
2016-09-26T03:14:15.134Z,1007.98
2016-09-26T03:15:15.155Z,1007.95
2016-09-26T03:16:15.175Z,1007.94
2016-09-26T03:17:15.203Z,1007.95
2016-09-26T03:18:15.219Z,1007.98
2016-09-26T03:19:15.237Z,1007.99
2016-09-26T03:20:15.260Z,1008.01
2016-09-26T03:21:15.280Z,1007.97
2016-09-26T03:22:15.299Z,1007.92
2016-09-26T03:23:15.320Z,1007.96
2016-09-26T03:24:15.342Z,1007.92
2016-09-26T03:25:15.367Z,1007.91
2016-09-26T03:26:15.383Z,1007.93
2016-09-26T03:27:15.403Z,1007.91
2016-09-26T03:28:15.426Z,1007.87
2016-09-26T03:29:15.458Z,1007.89
2016-09-26T03:30:15.466Z,1007.91
2016-09-26T03:31:15.487Z,1007.92
2016-09-26T03:32:15.508Z,1007.93
2016-09-26T03:33:15.529Z,1007.95
2016-09-26T03:34:15.549Z,1007.98
2016-09-26T03:35:15.570Z,1008.02
2016-09-26T03:36:15.591Z,1008
2016-09-26T03:37:15.612Z,1008
2016-09-26T03:38:15.633Z,1008.01
2016-09-26T03:39:15.654Z,1008.01
2016-09-26T03:40:15.677Z,1008.01
2016-09-26T03:41:15.695Z,1007.98
2016-09-26T03:42:15.714Z,1007.96
2016-09-26T03:43:15.734Z,1008.02
2016-09-26T03:44:15.756Z,1008.03
2016-09-26T03:45:15.778Z,1008.06
2016-09-26T03:46:15.798Z,1008.06
2016-09-26T03:47:15.819Z,1008.11
2016-09-26T03:48:15.838Z,1008.09
2016-09-26T03:49:15.859Z,1008.08
2016-09-26T03:50:15.885Z,1008.08
2016-09-26T03:51:15.899Z,1008.09
2016-09-26T03:52:15.921Z,1008.08
2016-09-26T03:53:15.942Z,1008.11
2016-09-26T03:54:15.963Z,1008.13
2016-09-26T03:55:15.984Z,1008.09
2016-09-26T03:56:16.007Z,1008.13
2016-09-26T03:57:16.024Z,1008.12
2016-09-26T03:58:16.043Z,1008.12
2016-09-26T03:59:16.064Z,1008.14
2016-09-26T04:00:16.087Z,1008.14
2016-09-26T04:01:16.115Z,1008.16
2016-09-26T04:02:16.127Z,1008.16
2016-09-26T04:03:16.149Z,1008.16
2016-09-26T04:04:16.168Z,1008.15
2016-09-26T04:05:16.189Z,1008.18
2016-09-26T04:06:16.208Z,1008.18
2016-09-26T04:07:16.230Z,1008.21
2016-09-26T04:08:16.250Z,1008.25
2016-09-26T04:09:16.270Z,1008.25
2016-09-26T04:10:16.291Z,1008.27
2016-09-26T04:11:16.311Z,1008.29
2016-09-26T04:12:16.333Z,1008.27
2016-09-26T04:13:16.353Z,1008.27
2016-09-26T04:14:16.372Z,1008.28
2016-09-26T04:15:16.393Z,1008.27
2016-09-26T04:16:16.415Z,1008.27
2016-09-26T04:17:16.436Z,1008.24
2016-09-26T04:18:16.458Z,1008.23
2016-09-26T04:19:16.477Z,1008.24
2016-09-26T04:20:16.497Z,1008.21
2016-09-26T04:21:16.518Z,1008.2
2016-09-26T04:22:16.537Z,1008.22
2016-09-26T04:23:16.558Z,1008.25
2016-09-26T04:24:16.579Z,1008.21
2016-09-26T04:25:16.598Z,1008.25
2016-09-26T04:26:16.619Z,1008.21
2016-09-26T04:27:16.639Z,1008.17
2016-09-26T04:28:16.660Z,1008.24
2016-09-26T04:29:16.679Z,1008.18
2016-09-26T04:30:16.703Z,1008.2
2016-09-26T04:31:16.721Z,1008.17
2016-09-26T04:32:16.741Z,1008.2
2016-09-26T04:33:16.762Z,1008.22
2016-09-26T04:34:16.783Z,1008.17
2016-09-26T04:35:16.802Z,1008.22
2016-09-26T04:36:16.823Z,1008.21
2016-09-26T04:37:16.843Z,1008.25
2016-09-26T04:38:16.868Z,1008.27
2016-09-26T04:39:16.884Z,1008.28
2016-09-26T04:40:16.906Z,1008.28
2016-09-26T04:41:16.927Z,1008.33
2016-09-26T04:42:16.945Z,1008.3
2016-09-26T04:43:16.967Z,1008.31
2016-09-26T04:44:16.989Z,1008.3
2016-09-26T04:45:17.008Z,1008.33
2016-09-26T04:46:17.028Z,1008.35
2016-09-26T04:47:17.054Z,1008.33
2016-09-26T04:48:17.070Z,1008.36
2016-09-26T04:49:17.087Z,1008.34
2016-09-26T04:50:17.108Z,1008.36
2016-09-26T04:51:17.142Z,1008.34
2016-09-26T04:52:17.149Z,1008.35
2016-09-26T04:53:17.170Z,1008.33
2016-09-26T04:54:17.190Z,1008.34
2016-09-26T04:55:17.210Z,1008.37
2016-09-26T04:56:17.231Z,1008.39
2016-09-26T04:57:17.251Z,1008.46
2016-09-26T04:58:17.272Z,1008.45
2016-09-26T04:59:17.291Z,1008.44
2016-09-26T05:00:17.311Z,1008.48
2016-09-26T05:01:17.332Z,1008.54
2016-09-26T05:02:17.353Z,1008.54
2016-09-26T05:03:17.374Z,1008.54
2016-09-26T05:04:17.393Z,1008.57
2016-09-26T05:05:17.413Z,1008.57
2016-09-26T05:06:17.435Z,1008.6
2016-09-26T05:07:17.454Z,1008.57
2016-09-26T05:08:17.476Z,1008.59
2016-09-26T05:09:17.495Z,1008.59
2016-09-26T05:10:17.516Z,1008.59
2016-09-26T05:11:17.534Z,1008.58
2016-09-26T05:12:17.557Z,1008.61
2016-09-26T05:13:17.577Z,1008.59
2016-09-26T05:14:17.597Z,1008.64
2016-09-26T05:15:17.619Z,1008.64
2016-09-26T05:16:17.637Z,1008.67
2016-09-26T05:17:17.658Z,1008.7
2016-09-26T05:18:17.677Z,1008.74
2016-09-26T05:19:17.698Z,1008.74
2016-09-26T05:20:17.717Z,1008.76
2016-09-26T05:21:17.739Z,1008.78
2016-09-26T05:22:17.763Z,1008.77
2016-09-26T05:23:17.778Z,1008.82
2016-09-26T05:24:17.799Z,1008.81
2016-09-26T05:25:17.819Z,1008.85
2016-09-26T05:26:17.839Z,1008.87
2016-09-26T05:27:17.859Z,1008.89
2016-09-26T05:28:17.880Z,1008.85
2016-09-26T05:29:17.899Z,1008.89
2016-09-26T05:30:17.920Z,1008.93
2016-09-26T05:31:17.939Z,1008.97
2016-09-26T05:32:17.961Z,1009
2016-09-26T05:33:17.980Z,1009.02
2016-09-26T05:34:18.000Z,1009.03
2016-09-26T05:35:18.020Z,1009.04
2016-09-26T05:36:18.042Z,1009.07
2016-09-26T05:37:18.061Z,1009.06
2016-09-26T05:38:18.081Z,1009.05
2016-09-26T05:39:18.102Z,1009.09
2016-09-26T05:40:18.121Z,1009.11
2016-09-26T05:41:18.142Z,1009.07
2016-09-26T05:42:18.165Z,1009.09
2016-09-26T05:43:18.183Z,1009.17
2016-09-26T05:44:18.203Z,1009.18
2016-09-26T05:45:18.223Z,1009.19
2016-09-26T05:46:18.243Z,1009.19
2016-09-26T05:47:18.265Z,1009.19
2016-09-26T05:48:18.282Z,1009.18
2016-09-26T05:49:18.303Z,1009.2
2016-09-26T05:50:18.322Z,1009.18
2016-09-26T05:51:18.343Z,1009.18
2016-09-26T05:52:18.365Z,1009.15
2016-09-26T05:53:18.383Z,1009.12
2016-09-26T05:54:18.403Z,1009.12
2016-09-26T05:55:18.423Z,1009.09
2016-09-26T05:56:18.444Z,1009.13
2016-09-26T05:57:18.467Z,1009.11
2016-09-26T05:58:18.492Z,1009.15
2016-09-26T05:59:18.505Z,1009.14
2016-09-26T06:00:18.525Z,1009.17
2016-09-26T06:01:18.543Z,1009.19
2016-09-26T06:02:18.564Z,1009.16
2016-09-26T06:03:18.585Z,1009.14
2016-09-26T06:04:18.605Z,1009.2
2016-09-26T06:05:18.626Z,1009.23
2016-09-26T06:06:18.647Z,1009.19
2016-09-26T06:07:18.666Z,1009.18
2016-09-26T06:08:18.685Z,1009.21
2016-09-26T06:09:18.706Z,1009.2
2016-09-26T06:10:18.725Z,1009.22
2016-09-26T06:11:18.748Z,1009.25
2016-09-26T06:12:18.766Z,1009.25
2016-09-26T06:13:18.787Z,1009.19
2016-09-26T06:14:18.807Z,1009.2
2016-09-26T06:15:18.826Z,1009.22
2016-09-26T06:16:18.848Z,1009.22
2016-09-26T06:17:18.866Z,1009.23
2016-09-26T06:18:18.888Z,1009.25
2016-09-26T06:19:18.908Z,1009.23
2016-09-26T06:20:18.928Z,1009.22
2016-09-26T06:21:18.948Z,1009.22
2016-09-26T06:22:18.969Z,1009.28
2016-09-26T06:23:18.988Z,1009.28
2016-09-26T06:24:19.008Z,1009.27
2016-09-26T06:25:19.029Z,1009.23
2016-09-26T06:26:19.050Z,1009.26
2016-09-26T06:27:19.071Z,1009.28
2016-09-26T06:28:19.091Z,1009.29
2016-09-26T06:29:19.111Z,1009.28
2016-09-26T06:30:19.131Z,1009.29
2016-09-26T06:31:19.151Z,1009.29
2016-09-26T06:32:19.172Z,1009.28
2016-09-26T06:33:19.192Z,1009.32
2016-09-26T06:34:19.213Z,1009.31
2016-09-26T06:35:19.235Z,1009.3
2016-09-26T06:36:19.268Z,1009.33
2016-09-26T06:37:19.275Z,1009.36
2016-09-26T06:38:19.294Z,1009.36
2016-09-26T06:39:19.315Z,1009.33
2016-09-26T06:40:19.334Z,1009.35
2016-09-26T06:41:19.354Z,1009.4
2016-09-26T06:42:19.375Z,1009.41
2016-09-26T06:43:19.395Z,1009.41
2016-09-26T06:44:19.415Z,1009.45
2016-09-26T06:45:19.436Z,1009.41
2016-09-26T06:46:19.455Z,1009.43
2016-09-26T06:47:19.477Z,1009.45
2016-09-26T06:48:19.499Z,1009.43
2016-09-26T06:49:19.517Z,1009.42
2016-09-26T06:50:19.537Z,1009.41
2016-09-26T06:51:19.557Z,1009.42
2016-09-26T06:52:19.580Z,1009.39
2016-09-26T06:53:19.599Z,1009.4
2016-09-26T06:54:19.621Z,1009.35
2016-09-26T06:55:19.639Z,1009.36
2016-09-26T06:56:19.661Z,1009.37
2016-09-26T06:57:19.679Z,1009.37
2016-09-26T06:58:19.701Z,1009.37
2016-09-26T06:59:19.722Z,1009.4
2016-09-26T07:00:19.742Z,1009.45
2016-09-26T07:01:19.761Z,1009.47
2016-09-26T07:02:19.783Z,1009.5
2016-09-26T07:03:19.804Z,1009.51
2016-09-26T07:04:19.824Z,1009.51
2016-09-26T07:05:19.844Z,1009.54
2016-09-26T07:06:19.870Z,1009.52
2016-09-26T07:07:19.886Z,1009.56
2016-09-26T07:08:19.906Z,1009.55
2016-09-26T07:09:19.926Z,1009.55
2016-09-26T07:10:19.947Z,1009.55
2016-09-26T07:11:19.969Z,1009.57
2016-09-26T07:12:19.988Z,1009.59
2016-09-26T07:13:20.008Z,1009.6
2016-09-26T07:14:20.029Z,1009.62
2016-09-26T07:15:20.048Z,1009.63
2016-09-26T07:16:20.072Z,1009.66
2016-09-26T07:17:20.091Z,1009.66
2016-09-26T07:18:20.112Z,1009.64
2016-09-26T07:19:20.131Z,1009.73
2016-09-26T07:20:20.154Z,1009.7
2016-09-26T07:21:20.173Z,1009.73
2016-09-26T07:22:20.195Z,1009.7
2016-09-26T07:23:20.330Z,1009.71
2016-09-26T07:24:20.235Z,1009.71
2016-09-26T07:25:20.255Z,1009.71
2016-09-26T07:26:20.274Z,1009.74
2016-09-26T07:27:20.296Z,1009.73
2016-09-26T07:28:20.317Z,1009.74
2016-09-26T07:29:20.337Z,1009.74
2016-09-26T07:30:20.359Z,1009.77
2016-09-26T07:31:20.379Z,1009.76
2016-09-26T07:32:20.401Z,1009.73
2016-09-26T07:33:20.420Z,1009.78
2016-09-26T07:34:20.440Z,1009.77
2016-09-26T07:35:20.461Z,1009.77
2016-09-26T07:36:20.483Z,1009.74
2016-09-26T07:37:20.504Z,1009.74
2016-09-26T07:38:20.529Z,1009.73
2016-09-26T07:39:20.544Z,1009.7
2016-09-26T07:40:20.564Z,1009.73
2016-09-26T07:41:20.584Z,1009.81
2016-09-26T07:42:20.607Z,1009.82
2016-09-26T07:43:20.628Z,1009.83
2016-09-26T07:44:20.648Z,1009.87
2016-09-26T07:45:20.668Z,1009.86
2016-09-26T07:46:20.689Z,1009.86
2016-09-26T07:47:20.714Z,1009.84
2016-09-26T07:48:20.731Z,1009.82
2016-09-26T07:49:20.752Z,1009.84
2016-09-26T07:50:20.773Z,1009.83
2016-09-26T07:51:20.799Z,1009.84
2016-09-26T07:52:20.812Z,1009.87
2016-09-26T07:53:20.834Z,1009.85
2016-09-26T07:54:20.854Z,1009.83
2016-09-26T07:55:20.876Z,1009.82
2016-09-26T07:56:20.897Z,1009.84
2016-09-26T07:57:20.917Z,1009.8
2016-09-26T07:58:20.937Z,1009.8
2016-09-26T07:59:20.961Z,1009.73
2016-09-26T08:00:20.979Z,1009.74
2016-09-26T08:01:21.002Z,1009.76
2016-09-26T08:02:21.026Z,1009.73
2016-09-26T08:03:21.043Z,1009.71
2016-09-26T08:04:21.063Z,1009.72
2016-09-26T08:05:21.084Z,1009.71
2016-09-26T08:06:21.106Z,1009.72
2016-09-26T08:07:21.127Z,1009.76
2016-09-26T08:08:21.147Z,1009.77
2016-09-26T08:09:21.168Z,1009.8
2016-09-26T08:10:21.188Z,1009.85
2016-09-26T08:11:21.208Z,1009.84
2016-09-26T08:12:21.231Z,1009.85
2016-09-26T08:13:21.251Z,1009.82
2016-09-26T08:14:21.273Z,1009.79
2016-09-26T08:15:21.294Z,1009.75
2016-09-26T08:16:21.314Z,1009.81
2016-09-26T08:17:21.335Z,1009.76
2016-09-26T08:18:21.357Z,1009.76
2016-09-26T08:19:21.380Z,1009.77
2016-09-26T08:20:21.400Z,1009.76
2016-09-26T08:21:21.421Z,1009.77
2016-09-26T08:22:21.445Z,1009.79
2016-09-26T08:23:21.462Z,1009.83
2016-09-26T08:24:21.484Z,1009.8
2016-09-26T08:25:21.504Z,1009.81
2016-09-26T08:26:21.525Z,1009.86
2016-09-26T08:27:21.547Z,1009.85
2016-09-26T08:28:21.569Z,1009.87
2016-09-26T08:29:21.588Z,1009.9
2016-09-26T08:30:21.610Z,1009.88
2016-09-26T08:31:21.638Z,1009.87
2016-09-26T08:32:21.652Z,1009.88
2016-09-26T08:33:21.674Z,1009.93
2016-09-26T08:34:21.695Z,1009.89
2016-09-26T08:35:21.716Z,1009.89
2016-09-26T08:36:21.737Z,1009.9
2016-09-26T08:37:21.759Z,1009.89
2016-09-26T08:38:21.780Z,1009.9
2016-09-26T08:39:21.829Z,1009.88
2016-09-26T08:40:21.822Z,1009.9
2016-09-26T08:41:21.845Z,1009.9
2016-09-26T08:42:21.866Z,1009.93
2016-09-26T08:43:21.887Z,1009.93
2016-09-26T08:44:21.908Z,1009.94
2016-09-26T08:45:21.930Z,1009.94
2016-09-26T08:46:21.954Z,1009.93
2016-09-26T08:47:21.971Z,1009.92
2016-09-26T08:48:21.995Z,1009.91
2016-09-26T08:49:22.015Z,1009.95
2016-09-26T08:50:22.036Z,1009.98
2016-09-26T08:51:22.058Z,1010.02
2016-09-26T08:52:22.083Z,1010.01
2016-09-26T08:53:22.103Z,1010.03
2016-09-26T08:54:22.123Z,1010.05
2016-09-26T08:55:22.145Z,1010.1
2016-09-26T08:56:22.166Z,1010.11
2016-09-26T08:57:22.190Z,1010.12
2016-09-26T08:58:22.209Z,1010.14
2016-09-26T08:59:22.233Z,1010.17
2016-09-26T09:00:22.253Z,1010.2
2016-09-26T09:01:22.274Z,1010.16
2016-09-26T09:02:22.298Z,1010.16
2016-09-26T09:03:22.318Z,1010.18
2016-09-26T09:04:22.343Z,1010.22
2016-09-26T09:05:22.362Z,1010.16
2016-09-26T09:06:22.385Z,1010.19
2016-09-26T09:07:22.406Z,1010.19
2016-09-26T09:08:22.429Z,1010.18
2016-09-26T09:09:22.449Z,1010.22
2016-09-26T09:10:22.472Z,1010.19
2016-09-26T09:11:22.497Z,1010.15
2016-09-26T09:12:22.516Z,1010.16
2016-09-26T09:13:22.538Z,1010.17
2016-09-26T09:14:22.561Z,1010.17
2016-09-26T09:15:22.582Z,1010.15
2016-09-26T09:16:22.605Z,1010.13
2016-09-26T09:17:22.627Z,1010.17
2016-09-26T09:18:22.651Z,1010.17
2016-09-26T09:19:22.672Z,1010.2
2016-09-26T09:20:22.694Z,1010.19
2016-09-26T09:21:22.716Z,1010.16
2016-09-26T09:22:22.738Z,1010.19
2016-09-26T09:23:22.760Z,1010.17
2016-09-26T09:24:22.783Z,1010.18
2016-09-26T09:25:22.805Z,1010.18
2016-09-26T09:26:22.828Z,1010.22
2016-09-26T09:27:22.865Z,1010.22
2016-09-26T09:28:22.873Z,1010.17
2016-09-26T09:29:22.895Z,1010.18
2016-09-26T09:30:22.919Z,1010.19
2016-09-26T09:31:22.941Z,1010.22
2016-09-26T09:32:22.963Z,1010.22
2016-09-26T09:33:22.990Z,1010.2
2016-09-26T09:34:23.007Z,1010.19
2016-09-26T09:35:23.030Z,1010.19
2016-09-26T09:36:23.121Z,1010.2
2016-09-26T09:37:23.129Z,1010.14
2016-09-26T09:38:23.101Z,1010.16
2016-09-26T09:39:23.121Z,1010.14
2016-09-26T09:40:23.144Z,1010.1
2016-09-26T09:41:23.167Z,1010.11
2016-09-26T09:42:23.192Z,1010.08
2016-09-26T09:43:23.212Z,1010.07
2016-09-26T09:44:23.235Z,1010.07
2016-09-26T09:45:23.257Z,1010.05
2016-09-26T09:46:23.285Z,1010.05
2016-09-26T09:47:23.303Z,1010.01
2016-09-26T09:48:23.328Z,1009.97
2016-09-26T09:49:23.416Z,1010
2016-09-26T09:50:23.458Z,1010.01
2016-09-26T09:51:23.395Z,1010.01
2016-09-26T09:52:23.418Z,1009.98
2016-09-26T09:53:23.441Z,1009.99
2016-09-26T09:54:23.466Z,1009.96
2016-09-26T09:55:23.489Z,1009.99
2016-09-26T09:56:23.511Z,1009.98
2016-09-26T09:57:23.535Z,1009.99
2016-09-26T09:58:23.558Z,1010.01
2016-09-26T09:59:23.581Z,1010
2016-09-26T10:00:23.604Z,1009.98
2016-09-26T10:01:23.627Z,1009.96
2016-09-26T10:02:23.650Z,1009.93
2016-09-26T10:03:23.673Z,1009.99
2016-09-26T10:04:23.696Z,1009.95
2016-09-26T10:05:23.722Z,1009.91
2016-09-26T10:06:23.743Z,1009.91
2016-09-26T10:07:23.766Z,1009.9
2016-09-26T10:08:23.792Z,1009.91
2016-09-26T10:09:23.814Z,1009.93
2016-09-26T10:10:23.840Z,1009.92
2016-09-26T10:11:23.861Z,1009.92
2016-09-26T10:12:23.885Z,1009.96
2016-09-26T10:13:23.907Z,1009.96
2016-09-26T10:14:23.932Z,1009.94
2016-09-26T10:15:23.956Z,1009.96
2016-09-26T10:16:23.978Z,1009.93
2016-09-26T10:17:24.002Z,1009.94
2016-09-26T10:18:24.025Z,1009.95
2016-09-26T10:19:24.050Z,1009.93
2016-09-26T10:20:24.074Z,1009.93
2016-09-26T10:21:24.098Z,1009.94
2016-09-26T10:22:24.121Z,1009.89
2016-09-26T10:23:24.145Z,1009.9
2016-09-26T10:24:24.226Z,1009.91
2016-09-26T10:25:24.192Z,1009.91
2016-09-26T10:26:24.216Z,1009.9
2016-09-26T10:27:24.239Z,1009.94
2016-09-26T10:28:24.265Z,1009.9
2016-09-26T10:29:24.287Z,1009.93
2016-09-26T10:30:24.312Z,1009.93
2016-09-26T10:31:24.337Z,1009.95
2016-09-26T10:32:24.361Z,1009.94
2016-09-26T10:33:24.384Z,1009.99
2016-09-26T10:34:24.410Z,1010.01
2016-09-26T10:35:24.433Z,1009.99
2016-09-26T10:36:24.456Z,1009.98
2016-09-26T10:37:24.482Z,1010
2016-09-26T10:38:24.505Z,1009.98
2016-09-26T10:39:24.529Z,1009.94
2016-09-26T10:40:24.556Z,1009.97
2016-09-26T10:41:24.578Z,1009.95
2016-09-26T10:42:24.602Z,1009.92
2016-09-26T10:43:24.628Z,1009.94
2016-09-26T10:44:24.651Z,1009.95
2016-09-26T10:45:24.679Z,1009.95
2016-09-26T10:46:24.701Z,1009.97
2016-09-26T10:47:24.724Z,1009.97
2016-09-26T10:48:24.750Z,1009.94
2016-09-26T10:49:24.774Z,1009.9
2016-09-26T10:50:24.799Z,1009.89
2016-09-26T10:51:24.829Z,1009.89
2016-09-26T10:52:24.848Z,1009.9
2016-09-26T10:53:24.875Z,1009.89
2016-09-26T10:54:24.898Z,1009.87
2016-09-26T10:55:24.922Z,1009.9
2016-09-26T10:56:24.948Z,1009.91
2016-09-26T10:57:24.978Z,1009.89
2016-09-26T10:58:24.996Z,1009.89
2016-09-26T10:59:25.022Z,1009.92
2016-09-26T11:00:25.047Z,1009.87
2016-09-26T11:01:25.178Z,1009.85
2016-09-26T11:02:25.096Z,1009.83
2016-09-26T11:03:25.122Z,1009.8
2016-09-26T11:04:25.147Z,1009.79
2016-09-26T11:05:25.175Z,1009.82
2016-09-26T11:06:25.197Z,1009.8
2016-09-26T11:07:25.223Z,1009.81
2016-09-26T11:08:25.248Z,1009.8
2016-09-26T11:09:25.275Z,1009.79
2016-09-26T11:10:25.298Z,1009.83
2016-09-26T11:11:25.324Z,1009.84
2016-09-26T11:12:25.349Z,1009.83
2016-09-26T11:13:25.375Z,1009.79
2016-09-26T11:14:25.402Z,1009.79
2016-09-26T11:15:25.425Z,1009.77
2016-09-26T11:16:25.451Z,1009.76
2016-09-26T11:17:25.476Z,1009.75
2016-09-26T11:18:25.501Z,1009.77
2016-09-26T11:19:25.529Z,1009.74
2016-09-26T11:20:25.553Z,1009.76
2016-09-26T11:21:25.578Z,1009.69
2016-09-26T11:22:25.606Z,1009.74
2016-09-26T11:23:25.631Z,1009.72
2016-09-26T11:24:25.655Z,1009.68
2016-09-26T11:25:25.682Z,1009.69
2016-09-26T11:26:25.708Z,1009.68
2016-09-26T11:27:25.734Z,1009.68
2016-09-26T11:28:25.761Z,1009.68
2016-09-26T11:29:25.788Z,1009.71
2016-09-26T11:30:25.933Z,1009.72
2016-09-26T11:31:25.840Z,1009.75
2016-09-26T11:32:25.866Z,1009.74
2016-09-26T11:33:25.893Z,1009.75
2016-09-26T11:34:25.924Z,1009.8
2016-09-26T11:35:25.945Z,1009.81
2016-09-26T11:36:25.969Z,1009.78
2016-09-26T11:37:25.995Z,1009.8
2016-09-26T11:38:26.022Z,1009.79
2016-09-26T11:39:26.047Z,1009.79
2016-09-26T11:40:26.074Z,1009.79
2016-09-26T11:41:26.102Z,1009.77
2016-09-26T11:42:26.129Z,1009.77
2016-09-26T11:43:26.154Z,1009.76
2016-09-26T11:44:26.182Z,1009.75
2016-09-26T11:45:26.207Z,1009.78
2016-09-26T11:46:26.233Z,1009.74
2016-09-26T11:47:26.260Z,1009.79
2016-09-26T11:48:26.286Z,1009.78
2016-09-26T11:49:26.315Z,1009.87
2016-09-26T11:50:26.339Z,1009.82
2016-09-26T11:51:26.368Z,1009.81
2016-09-26T11:52:26.392Z,1009.88
2016-09-26T11:53:26.419Z,1009.85
2016-09-26T11:54:26.445Z,1009.86
2016-09-26T11:55:26.474Z,1009.87
2016-09-26T11:56:26.503Z,1009.88
2016-09-26T11:57:26.526Z,1009.87
2016-09-26T11:58:26.553Z,1009.85
2016-09-26T11:59:26.581Z,1009.84
2016-09-26T12:00:26.607Z,1009.81
2016-09-26T12:01:26.672Z,1009.83
2016-09-26T12:02:26.681Z,1009.81
2016-09-26T12:03:26.688Z,1009.8
2016-09-26T12:04:26.715Z,1009.83
2016-09-26T12:05:26.742Z,1009.79
2016-09-26T12:06:26.769Z,1009.89
2016-09-26T12:07:26.796Z,1009.83
2016-09-26T12:08:26.823Z,1009.87